Relevés horaires Sion (Suisse)


Relevés horaires à Sion - Mardi 05 Avr. 2005
Heure UTC1 Température [°C] Vent [km/h] Hum. [%] Pres.4 [hPa] Visi. [Km] Nébu. [octa] Préc.5 [mm] Cond.
2m. Res. Ros. Dir.2 Vit. Moy. Raf.3
23:00 10.5 10.5 1.5 NNO 0.0 -- -- 54 1026 -- -- -- --
22:00 11.8 11.8 1.9 NNO 0.0 -- -- 51 1025.5 -- -- -- --
21:00 14.4 14.4 1.7 NNO 0.0 -- -- 42 1024.6(1.5/3h) 25 7/8 -- --
20:00 14.5 14.5 1.9 NNO 0.0 -- -- 42 1024.4 -- -- -- --
19:00 14.5 14.5 1.9 OSO 5.6 -- -- 42 1023.5 -- -- -- --
18:00 15.4 15.4 1.6 O 7.4 -- -- 39 1022.8(0.7/3h) 25 7/8 -- --
17:00 16.2 15.7 1.9 OSO 13.0 -- -- 38 1022.2 -- -- -- --
16:00 18.7 18.2 1.7 OSO 22.2 -- -- 32 1021.4 -- -- -- --
15:00 19.1 19.1 2.3 NNO 0.0 -- -- 33 1021.3(-2.7/3h) 25 4/8 -- --
14:00 18.3 18.3 -1.5 NNO 0.0 -- -- 26 1022 -- -- -- --
12:00 17.5 17.5 -3.2 NNO 0.0 -- -- 24 1023.4 25 3/8 -- --
11:00 15.4 15.4 -3.2 NNO 0.0 -- -- 28 1024.9 -- -- -- --
10:00 12.1 12.1 -4.8 NNO 0.0 -- -- 30 1027 -- -- -- --
09:00 8.6 8.6 -1.9 NNO 0.0 -- -- 48 1028.6 -- -- -- --
08:00 8.1 8.1 -2.0 NNO 0.0 -- -- 49 1028.9 -- -- -- --
07:00 6.0 6.0 -1.4 NNO 0.0 -- -- 59 1029.5 -- -- -- --
05:00 4.2 4.2 -2.4 NNO 0.0 -- -- 62 1029 -- -- -- --
04:00 4.0 4.0 -2.0 NNO 0.0 -- -- 65 1029 -- -- -- --
03:00 5.0 5.0 -2.8 NNO 0.0 -- -- 57 1028.5 20 0/8 -- --
02:00 5.1 5.1 -2.3 NNO 0.0 -- -- 59 1028.2 -- -- -- --
01:00 6.4 6.4 -2.2 NNO 0.0 -- -- 54 1027.9 -- -- -- --
00:00 6.1 6.1 -1.9 NNO 0.0 -- -- 56 1027.8 20 0/8 0/0h
--

1 Coordinated Universal Time. Actuellement il est 00:00 locale et 22:00 UTC.

2 Le vent souffle depuis la direction indiquée vers la direction oposée.

3 Les rafales max. sont disponible 40 min après l'heure du relevé.

4 Pour les stations d'altitude (plus de 600m) le géopotentiel du niveau le plus proche de la pression obligatoire est indiqué.

5 Les stations disposant d'un diffuseur peuvent indiquer "trace". Cela signifie que des précipitations ont touchés le sol mais que la quantité est inférieure à 0.1 mm.

Copyright

Les données affichées sur cette page sont la propriété exclusive de Météo Suisse.

Récapitulatif de la journée
Température [°C] Vent [km/h] Ensoleillement4 [h] Precipitations totale5 [mm] Pression [Hpa]
Min1 Max.2 Moy.3 Max. Min Max.
-- -- 0 -- 0 h 0 min 0 1021.3 1029.5

1 Température minimale relevée entre 18:00 UTC la veille et 18:00 UTC le jour donné.

2 Température maximale relevée entre 06:00 UTC le jour donné et 06:00 UTC le lendemain.

3 Vent moyen de la journée basé sur les relevés horaires.

4 Ensoleillement en heures relevé entre 06:00 UTC la veille et 06:00 UTC le jour donné.

5 Précipitations totales tombées entre 06:00 UTC la jour donné et 06:00 UTC le lendemain.

Graphiques horaires